Time;durP1;ratioP1;P1;durP2;ratioP2;P2;SDS_P1;SDS_P2;PMS_P1;PMS_P2;Temp;Humidity;BMP_temperature;BMP_pressure;BME280_temperature;BME280_humidity;BME280_pressure;Samples;Min_cycle;Max_cycle;Signal;HPM_P1;HPM_P2
2024/04/17 00:00:39;;;;;;;;;8.75;5.00;;;;;22.31;41.42;99798.38;146616;684;47029;-75
2024/04/17 00:03:40;;;;;;;;;4.33;4.00;;;;;22.21;42.02;99809.91;146610;625;46020;-77
2024/04/17 00:06:48;;;;;;;;;4.00;3.00;;;;;21.41;40.83;99684.91;146614;570;47010;-78
2024/04/17 00:09:45;;;;;;;;;3.33;3.33;;;;;22.08;41.44;99795.91;146619;603;47008;-78
2024/04/17 00:12:47;;;;;;;;;5.00;5.00;;;;;22.07;41.08;99797.69;146618;599;46012;-79
2024/04/17 00:15:50;;;;;;;;;2.33;2.33;;;;;22.05;42.28;99788.91;146620;565;47008;-79
2024/04/17 00:18:42;;;;;;;;;4.33;4.00;;;;;22.00;42.07;99777.53;146619;639;46010;-75
2024/04/17 00:21:38;;;;;;;;;5.33;4.00;;;;;22.01;41.82;99771.34;146620;566;46020;-78
2024/04/17 00:24:31;;;;;;;;;5.67;4.33;;;;;22.00;42.08;99763.47;146616;591;46016;-79
2024/04/17 00:27:27;;;;;;;;;5.67;4.00;;;;;22.01;41.91;99768.72;146620;581;47008;-79
2024/04/17 00:30:31;;;;;;;;;5.00;3.67;;;;;22.03;41.96;99771.34;146617;650;46017;-78
2024/04/17 00:33:25;;;;;;;;;3.67;3.67;;;;;22.06;41.59;99768.69;146613;567;46020;-76
2024/04/17 00:36:24;;;;;;;;;5.67;3.00;;;;;22.09;41.77;99769.53;146615;639;46998;-75
2024/04/17 00:39:44;;;;;;;;;;;;;;;;;;;;;
2024/04/17 00:43:01;;;;;;;;;2.00;2.00;;;;;22.16;41.45;99780.91;146619;630;46029;-75
2024/04/17 00:46:08;;;;;;;;;7.67;4.00;;;;;22.18;41.64;99767.69;146620;565;46023;-76
2024/04/17 00:49:32;;;;;;;;;5.00;3.00;;;;;22.20;41.68;99765.91;146618;677;46016;-73
2024/04/17 00:52:32;;;;;;;;;4.33;4.33;;;;;22.20;41.78;99771.19;146621;635;46021;-74
2024/04/17 00:55:28;;;;;;;;;2.00;2.00;;;;;22.18;42.32;99757.13;146612;585;47016;-74
2024/04/17 00:58:38;;;;;;;;;;;;;;;;;;;;;
2024/04/17 01:01:41;;;;;;;;;3.00;2.00;;;;;22.19;42.42;99745.69;146616;642;46016;-76
2024/04/17 01:04:58;;;;;;;;;4.67;3.67;;;;;21.54;41.48;99638.16;146615;564;46008;-75
2024/04/17 01:07:59;;;;;;;;;2.00;2.00;;;;;22.21;42.00;99750.06;146619;701;46011;-76
2024/04/17 01:11:12;;;;;;;;;3.67;1.33;;;;;21.64;41.60;99649.50;146618;659;46020;-76
2024/04/17 01:14:26;;;;;;;;;4.00;4.00;;;;;22.22;42.86;99732.44;146615;564;47017;-75
2024/04/17 01:17:38;;;;;;;;;7.00;5.00;;;;;22.21;43.29;99720.13;146622;563;47008;-75
2024/04/17 01:20:35;;;;;;;;;5.00;2.33;;;;;22.17;43.09;99734.25;146619;582;46914;-79
2024/04/17 01:23:33;;;;;;;;;4.00;3.00;;;;;22.12;43.23;99740.44;146622;564;47008;-79
2024/04/17 01:26:43;;;;;;;;;6.33;4.00;;;;;22.12;43.08;99740.44;146618;630;46012;-75
2024/04/17 01:30:07;;;;;;;;;5.00;3.67;;;;;22.15;42.14;99726.34;146622;649;46021;-78
2024/04/17 01:33:13;;;;;;;;;7.33;5.67;;;;;22.20;42.56;99727.16;146615;606;46913;-74
2024/04/17 01:36:23;;;;;;;;;4.33;4.00;;;;;22.24;42.52;99713.06;146608;569;47008;-74
2024/04/17 01:39:35;;;;;;;;;6.67;5.67;;;;;22.29;43.17;99705.06;146617;651;46012;-74
2024/04/17 01:42:50;;;;;;;;;8.00;6.00;;;;;22.32;41.64;99710.31;146616;603;46916;-72
2024/04/17 01:46:18;;;;;;;;;7.00;4.00;;;;;21.74;41.93;99616.81;146619;565;47019;-72
2024/04/17 01:49:13;;;;;;;;;7.00;5.67;;;;;22.31;42.83;99703.28;146622;574;46020;-72
2024/04/17 01:52:12;;;;;;;;;8.33;4.33;;;;;22.29;43.21;99700.66;146613;623;46017;-72
2024/04/17 01:55:06;;;;;;;;;8.75;6.00;;;;;22.28;43.41;99706.84;146616;689;48010;-72
2024/04/17 01:58:05;;;;;;;;;4.67;3.67;;;;;22.27;43.48;99704.19;146613;649;46010;-71
2024/04/17 02:01:06;;;;;;;;;3.00;3.00;;;;;22.19;43.31;99711.37;146623;602;46008;-70
2024/04/17 02:04:05;;;;;;;;;5.33;4.00;;;;;22.10;43.82;99702.63;146617;579;47010;-70
2024/04/17 02:07:36;;;;;;;;;4.00;3.67;;;;;22.04;43.52;99713.25;146612;566;46021;-70
2024/04/17 02:10:31;;;;;;;;;4.33;3.67;;;;;21.94;44.05;99726.59;146616;580;46012;-69
2024/04/17 02:13:27;;;;;;;;;4.00;3.00;;;;;21.86;44.11;99731.94;146620;582;46021;-70
2024/04/17 02:16:24;;;;;;;;;6.33;5.00;;;;;21.79;44.77;99736.41;146618;571;47010;-71
2024/04/17 02:19:21;;;;;;;;;2.67;2.00;;;;;21.79;44.39;99736.41;146622;565;47020;-72
2024/04/17 02:22:31;;;;;;;;;;;;;;;;;;;;;
2024/04/17 02:25:25;;;;;;;;;6.67;3.00;;;;;21.79;44.82;99740.81;146621;647;47008;-68
2024/04/17 02:28:29;;;;;;;;;4.00;2.00;;;;;21.76;44.93;99741.72;146617;628;46017;-70
2024/04/17 02:31:51;;;;;;;;;2.33;2.00;;;;;21.73;44.64;99746.16;146621;570;47008;-70
2024/04/17 02:34:46;;;;;;;;;3.67;2.00;;;;;21.68;45.03;99755.00;146620;574;47010;-73
2024/04/17 02:37:41;;;;;;;;;3.00;3.00;;;;;21.67;45.50;99749.72;146613;640;46021;-73
2024/04/17 02:40:49;;;;;;;;;4.00;3.00;;;;;21.64;44.93;99742.69;146618;579;46028;-72
2024/04/17 02:43:53;;;;;;;;;4.00;2.67;;;;;21.60;45.57;99735.72;146620;594;47008;-72
2024/04/17 02:46:46;;;;;;;;;3.67;3.67;;;;;21.39;45.80;99707.75;146619;575;46911;-70
2024/04/17 02:49:48;;;;;;;;;2.67;1.67;;;;;21.54;46.03;99719.94;146620;587;47008;-74
2024/04/17 02:52:40;;;;;;;;;5.33;2.00;;;;;21.50;46.25;99706.81;146621;572;46010;-71
2024/04/17 02:55:45;;;;;;;;;4.00;3.33;;;;;21.41;46.41;99713.03;146621;563;46008;-76
2024/04/17 02:58:42;;;;;;;;;4.00;4.00;;;;;21.32;46.32;99707.81;146618;608;46016;-76
2024/04/17 03:01:59;;;;;;;;;4.33;3.67;;;;;21.31;45.92;99698.13;146624;565;46008;-83
2024/04/17 03:04:52;;;;;;;;;4.33;4.00;;;;;21.30;46.68;99693.75;146618;616;46011;-79
2024/04/17 03:07:53;;;;;;;;;7.00;4.67;;;;;21.30;45.10;99693.75;146613;571;46021;-73
2024/04/17 03:11:05;;;;;;;;;7.75;5.75;;;;;21.38;44.48;99697.25;146618;565;46010;-73
2024/04/17 03:14:28;;;;;;;;;7.00;5.00;;;;;20.84;43.55;99580.81;146619;674;46021;-73
2024/04/17 03:17:25;;;;;;;;;9.00;6.75;;;;;21.63;44.23;99687.31;146617;565;46921;-72
2024/04/17 03:20:40;;;;;;;;;4.50;4.50;;;;;21.75;43.42;99689.84;146618;596;47021;-73
2024/04/17 03:23:58;;;;;;;;;6.00;4.25;;;;;21.83;43.77;99695.87;146618;730;46010;-71
2024/04/17 03:27:02;;;;;;;;;7.25;5.00;;;;;21.91;43.23;99687.91;146620;670;46021;-74
2024/04/17 03:30:00;;;;;;;;;5.50;4.25;;;;;21.96;43.67;99679.91;146618;672;46010;-75
2024/04/17 03:32:55;;;;;;;;;9.50;6.75;;;;;21.95;43.81;99675.53;146619;575;46020;-73
2024/04/17 03:36:20;;;;;;;;;9.00;7.25;;;;;21.94;43.29;99664.09;146616;573;46016;-75
2024/04/17 03:39:20;;;;;;;;;8.75;7.75;;;;;21.95;43.79;99657.94;146608;590;48020;-76
2024/04/17 03:42:14;;;;;;;;;6.33;6.00;;;;;21.98;43.53;99652.59;146618;604;46010;-75
2024/04/17 03:45:09;;;;;;;;;6.33;4.67;;;;;22.02;43.57;99654.31;146621;660;46008;-75
2024/04/17 03:48:04;;;;;;;;;6.00;6.00;;;;;22.07;43.42;99662.19;146615;687;46016;-74
2024/04/17 03:51:00;;;;;;;;;8.33;6.67;;;;;22.09;43.51;99665.69;146621;628;46020;-75
2024/04/17 03:54:00;;;;;;;;;4.00;4.00;;;;;22.13;43.09;99672.66;146615;591;47016;-75
2024/04/17 03:57:36;;;;;;;;;4.67;4.67;;;;;21.55;42.03;99565.19;146621;558;47008;-76
2024/04/17 04:00:54;;;;;;;;;5.67;5.00;;;;;21.83;42.16;99592.97;146616;578;47010;-74
2024/04/17 04:03:54;;;;;;;;;4.75;3.75;;;;;22.28;43.65;99651.37;146622;566;47009;-76
2024/04/17 04:06:52;;;;;;;;;9.33;6.00;;;;;22.31;43.19;99663.69;146617;584;47016;-76
2024/04/17 04:09:57;;;;;;;;;4.50;3.50;;;;;22.35;43.05;99662.72;146612;587;46020;-80
2024/04/17 04:12:58;;;;;;;;;7.00;6.00;;;;;22.37;43.22;99668.88;146615;661;47011;-78
2024/04/17 04:16:00;;;;;;;;;8.50;5.00;;;;;22.38;43.53;99662.69;146620;569;46020;-79
2024/04/17 04:19:08;;;;;;;;;7.67;5.33;;;;;22.39;43.47;99653.88;146616;632;47010;-80
2024/04/17 04:22:07;;;;;;;;;9.25;6.75;;;;;22.42;44.36;99655.59;146621;673;46020;-79
2024/04/17 04:25:05;;;;;;;;;9.75;7.00;;;;;22.39;44.68;99650.34;146616;609;47016;-81
2024/04/17 04:27:59;;;;;;;;;9.00;8.33;;;;;22.33;45.09;99638.09;146622;588;47008;-80
2024/04/17 04:30:55;;;;;;;;;6.25;5.50;;;;;22.25;45.57;99630.28;146615;641;47912;-80
2024/04/17 04:34:26;;;;;;;;;6.00;4.50;;;;;22.14;45.04;99617.19;146619;570;46021;-79
2024/04/17 04:37:23;;;;;;;;;8.75;7.00;;;;;22.08;45.87;99608.50;146615;604;46016;-73
2024/04/17 04:40:26;;;;;;;;;7.50;7.00;;;;;22.02;45.73;99609.44;146616;629;46008;-73
2024/04/17 04:43:52;;;;;;;;;8.75;8.25;;;;;21.28;45.39;99487.22;146615;704;46016;-73
2024/04/17 04:46:51;;;;;;;;;6.75;5.00;;;;;21.92;45.50;99602.53;146621;580;46010;-74
2024/04/17 04:50:02;;;;;;;;;8.00;6.33;;;;;21.91;44.86;99612.22;146616;577;47010;-74
2024/04/17 04:53:00;;;;;;;;;6.00;4.33;;;;;22.01;44.44;99614.75;146621;569;47008;-73
2024/04/17 04:56:16;;;;;;;;;4.00;3.00;;;;;22.10;43.04;99618.13;146619;617;46030;-74
2024/04/17 04:59:17;;;;;;;;;5.67;5.67;;;;;22.17;45.17;99618.97;146621;563;46026;-79
2024/04/17 05:02:17;;;;;;;;;3.00;3.00;;;;;22.21;44.47;99620.69;146616;667;47013;-84
2024/04/17 05:05:14;;;;;;;;;4.33;4.00;;;;;22.22;44.80;99598.66;146620;586;46021;-83
2024/04/17 05:08:13;;;;;;;;;4.00;4.00;;;;;22.24;44.61;99606.53;146616;583;46016;-79
2024/04/17 05:11:13;;;;;;;;;7.50;6.50;;;;;22.22;45.24;99622.41;146614;674;46009;-75
2024/04/17 05:14:08;;;;;;;;;7.00;4.67;;;;;22.16;45.72;99624.25;146614;589;46016;-76
2024/04/17 05:17:26;;;;;;;;;4.00;4.00;;;;;22.14;45.11;99627.75;146615;617;48020;-85
2024/04/17 05:20:32;;;;;;;;;5.67;5.00;;;;;22.12;45.68;99637.47;146615;632;46914;-83
2024/04/17 05:23:33;;;;;;;;;7.00;5.00;;;;;22.13;45.32;99639.22;146619;652;47020;-84
2024/04/17 05:26:42;;;;;;;;;8.00;7.50;;;;;22.13;45.84;99644.50;146616;573;47010;-78
2024/04/17 05:29:52;;;;;;;;;8.00;8.00;;;;;22.16;45.18;99651.53;146622;580;46008;-79
2024/04/17 05:32:57;;;;;;;;;8.75;6.75;;;;;22.22;45.60;99642.69;146616;571;46017;-77
2024/04/17 05:35:50;;;;;;;;;6.67;6.33;;;;;22.22;45.50;99632.12;146621;606;47008;-78
2024/04/17 05:39:01;;;;;;;;;5.00;5.00;;;;;22.24;45.28;99620.63;146616;595;46029;-76
2024/04/17 05:42:32;;;;;;;;;7.75;6.75;;;;;21.70;45.01;99519.28;146612;721;46021;-77
2024/04/17 05:45:57;;;;;;;;;9.50;7.75;;;;;22.44;45.10;99630.03;146615;608;46911;-77
2024/04/17 05:49:06;;;;;;;;;5.33;5.00;;;;;22.48;45.44;99634.38;146619;616;46024;-77
2024/04/17 05:52:14;;;;;;;;;;;;;;;;;;;;;
2024/04/17 05:55:29;;;;;;;;;5.67;5.00;;;;;22.60;44.77;99637.69;146621;583;46021;-73
2024/04/17 05:58:51;;;;;;;;;;;;;;;;;;;;;
2024/04/17 06:01:49;;;;;;;;;7.50;6.00;;;;;22.86;44.80;99630.25;146619;664;47010;-78
2024/04/17 06:04:50;;;;;;;;;9.25;6.50;;;;;22.88;44.66;99633.75;146619;603;46010;-74
2024/04/17 06:08:14;;;;;;;;;9.00;7.00;;;;;22.23;43.88;99510.63;146620;639;46020;-80
2024/04/17 06:11:23;;;;;;;;;9.50;7.75;;;;;22.95;44.58;99635.44;146617;635;46910;-81
2024/04/17 06:14:24;;;;;;;;;8.50;6.75;;;;;23.00;45.41;99631.81;146609;714;47008;-80
2024/04/17 06:17:19;;;;;;;;;7.33;7.33;;;;;23.00;45.33;99639.75;146607;606;46017;-85
2024/04/17 06:20:25;;;;;;;;;9.75;6.25;;;;;22.94;44.06;99634.56;146618;620;46020;-89
2024/04/17 06:23:41;;;;;;;;;7.00;6.00;;;;;22.92;44.87;99635.44;146618;576;46016;-80
2024/04/17 06:26:36;;;;;;;;;7.25;5.50;;;;;22.88;45.83;99637.28;146619;699;47008;-79
2024/04/17 06:29:43;;;;;;;;;8.00;6.33;;;;;22.78;45.49;99630.41;146614;569;47016;-79
2024/04/17 06:32:56;;;;;;;;;9.33;7.00;;;;;22.64;45.65;99619.16;146617;605;47009;-80
2024/04/17 06:35:57;;;;;;;;;6.00;5.33;;;;;22.20;45.46;99575.81;146614;586;47012;-78
2024/04/17 06:39:07;;;;;;;;;;;;;;;;;;;;;
2024/04/17 06:42:15;;;;;;;;;6.33;6.00;;;;;22.30;45.22;99614.38;146613;605;46016;-79
2024/04/17 06:45:15;;;;;;;;;6.75;6.75;;;;;22.30;45.92;99606.44;146611;569;47008;-80
2024/04/17 06:48:14;;;;;;;;;7.00;5.75;;;;;22.31;46.02;99597.66;146614;606;47016;-80
2024/04/17 06:51:23;;;;;;;;;7.25;6.25;;;;;21.66;45.71;99470.97;146622;571;47008;-78
2024/04/17 06:54:21;;;;;;;;;10.00;6.33;;;;;22.35;46.01;99578.22;146619;606;47010;-79
2024/04/17 06:57:37;;;;;;;;;8.00;6.67;;;;;22.41;45.43;99571.97;146617;630;47008;-79
2024/04/17 07:00:57;;;;;;;;;7.00;4.67;;;;;21.79;44.71;99464.62;146616;606;46016;-75
2024/04/17 07:04:04;;;;;;;;;;;;;;;;;;;;;
2024/04/17 07:07:07;;;;;;;;;5.50;5.00;;;;;22.68;45.02;99586.50;146613;589;47012;-79
2024/04/17 07:10:02;;;;;;;;;9.25;9.25;;;;;22.72;45.70;99588.22;146621;648;46009;-79
2024/04/17 07:12:57;;;;;;;;;11.50;8.50;;;;;22.73;45.33;99593.47;146605;678;47913;-77
2024/04/17 07:15:58;;;;;;;;;10.25;9.25;;;;;22.73;44.06;99597.87;146612;593;46021;-82
2024/04/17 07:19:04;;;;;;;;;9.75;8.75;;;;;22.77;45.15;99599.56;146616;659;47010;-80
2024/04/17 07:22:04;;;;;;;;;8.50;8.25;;;;;22.85;45.00;99605.59;146618;698;46008;-78
2024/04/17 07:25:16;;;;;;;;;9.75;7.00;;;;;22.88;44.52;99608.19;146611;606;46016;-76
2024/04/17 07:28:20;;;;;;;;;7.00;6.75;;;;;22.96;45.73;99613.37;146618;674;47020;-80
2024/04/17 07:31:33;;;;;;;;;7.00;6.25;;;;;22.56;44.61;99545.31;146615;628;46012;-79
2024/04/17 07:34:31;;;;;;;;;8.00;5.67;;;;;22.82;45.57;99600.38;146619;653;46020;-78
2024/04/17 07:37:30;;;;;;;;;6.50;5.75;;;;;22.65;45.55;99598.00;146614;630;47010;-75
2024/04/17 07:40:28;;;;;;;;;6.67;6.67;;;;;22.56;45.60;99601.66;146616;579;47020;-75
2024/04/17 07:43:19;;;;;;;;;5.75;5.75;;;;;22.57;46.49;99587.56;146618;658;46029;-75
2024/04/17 07:46:30;;;;;;;;;8.25;7.00;;;;;22.71;46.35;99584.69;146611;666;46021;-78
2024/04/17 07:49:38;;;;;;;;;6.67;3.67;;;;;22.95;44.75;99591.34;146617;607;47913;-80
2024/04/17 07:52:36;;;;;;;;;6.50;5.75;;;;;23.07;45.26;99586.75;146618;572;46021;-74
2024/04/17 07:55:38;;;;;;;;;9.00;7.25;;;;;23.13;45.28;99595.47;146616;668;47016;-76
2024/04/17 07:58:42;;;;;;;;;7.25;6.75;;;;;23.11;44.82;99580.50;146619;636;47008;-75
2024/04/17 08:02:15;;;;;;;;;6.00;5.25;;;;;22.31;44.26;99468.25;146618;609;46010;-76
2024/04/17 08:05:22;;;;;;;;;7.67;6.67;;;;;22.94;45.14;99588.75;146623;563;46026;-76
2024/04/17 08:08:40;;;;;;;;;7.33;6.00;;;;;22.04;44.10;99428.16;146615;664;46017;-74
2024/04/17 08:11:35;;;;;;;;;7.50;5.25;;;;;23.02;44.93;99597.41;146617;565;47020;-72
2024/04/17 08:14:44;;;;;;;;;10.00;7.00;;;;;23.13;45.73;99589.31;146617;632;46017;-77
2024/04/17 08:17:49;;;;;;;;;7.67;6.00;;;;;23.26;45.38;99578.47;146613;598;46020;-80
2024/04/17 08:20:52;;;;;;;;;4.00;3.00;;;;;23.51;44.78;99578.84;146615;579;46016;-79
2024/04/17 08:23:55;;;;;;;;;7.25;4.75;;;;;23.71;43.92;99570.56;146621;569;46010;-76
2024/04/17 08:26:59;;;;;;;;;12.50;10.00;;;;;23.79;44.00;99570.38;146613;576;47012;-79
2024/04/17 08:29:54;;;;;;;;;7.00;6.00;;;;;23.74;44.04;99564.34;146613;626;46021;-74
2024/04/17 08:32:53;;;;;;;;;4.33;4.33;;;;;23.65;43.86;99575.09;146618;628;46029;-77
2024/04/17 08:36:07;;;;;;;;;6.67;5.00;;;;;23.57;44.38;99569.94;146620;704;46020;-74
2024/04/17 08:39:07;;;;;;;;;6.00;5.00;;;;;23.44;44.28;99545.50;146612;606;47016;-76
2024/04/17 08:42:11;;;;;;;;;4.67;3.00;;;;;23.33;43.70;99547.47;146622;644;46020;-76
2024/04/17 08:45:22;;;;;;;;;;;;;;;;;;;;;
2024/04/17 08:48:34;;;;;;;;;5.25;4.25;;;;;23.18;43.99;99535.44;146610;668;46022;-76
2024/04/17 08:51:35;;;;;;;;;15.25;11.00;;;;;23.18;44.02;99539.84;146612;583;46016;-77
2024/04/17 08:54:46;;;;;;;;;5.00;5.00;;;;;23.25;44.64;99533.53;146609;634;47008;-78
2024/04/17 08:57:46;;;;;;;;;30.50;27.00;;;;;23.51;44.92;99528.59;146613;563;47016;-75
2024/04/17 09:00:44;;;;;;;;;16.00;9.75;;;;;23.90;44.41;99527.81;146610;582;46025;-76
2024/04/17 09:04:08;;;;;;;;;5.00;5.00;;;;;24.39;43.22;99519.59;146616;602;46012;-75
2024/04/17 09:07:29;;;;;;;;;11.00;8.00;;;;;24.20;42.17;99414.97;146623;627;46008;-74
2024/04/17 09:10:37;;;;;;;;;16.00;12.75;;;;;24.78;42.21;99510.69;146613;622;47010;-74
2024/04/17 09:13:32;;;;;;;;;8.33;5.67;;;;;24.57;41.76;99497.06;146610;596;47008;-75
2024/04/17 09:16:46;;;;;;;;;3.25;3.25;;;;;23.91;42.40;99410.41;146615;587;47010;-75
2024/04/17 09:19:57;;;;;;;;;6.67;5.67;;;;;23.96;42.80;99388.22;146612;589;46020;-74
2024/04/17 09:23:05;;;;;;;;;5.00;5.00;;;;;24.66;41.79;99494.19;146617;566;46012;-77
2024/04/17 09:26:18;;;;;;;;;4.33;3.33;;;;;24.63;42.52;99493.41;146621;655;47010;-73
2024/04/17 09:29:10;;;;;;;;;4.33;4.00;;;;;24.54;42.38;99480.38;146613;677;47012;-74
2024/04/17 09:32:22;;;;;;;;;5.33;4.00;;;;;24.40;42.71;99478.06;146619;586;47008;-75
2024/04/17 09:35:26;;;;;;;;;5.67;4.00;;;;;24.31;43.48;99488.91;146617;632;47910;-76
2024/04/17 09:38:27;;;;;;;;;4.33;4.00;;;;;24.24;43.06;99482.87;146634;666;46010;-74
2024/04/17 09:41:25;;;;;;;;;6.33;5.00;;;;;24.20;43.42;99486.50;146635;564;45910;-74
2024/04/17 09:44:42;;;;;;;;;5.67;4.00;;;;;24.19;43.12;99488.28;146634;661;47021;-73
2024/04/17 09:47:37;;;;;;;;;8.00;4.00;;;;;24.18;43.18;99478.59;146630;620;46010;-72
2024/04/17 09:50:46;;;;;;;;;6.67;5.67;;;;;24.19;42.91;99475.03;146627;575;46010;-80
2024/04/17 09:54:06;;;;;;;;;6.67;3.33;;;;;23.60;43.09;99362.59;146628;641;45026;-76
2024/04/17 09:57:09;;;;;;;;;5.67;4.00;;;;;24.41;43.64;99463.91;146635;582;46008;-75
2024/04/17 10:00:04;;;;;;;;;10.33;5.00;;;;;24.55;41.90;99460.91;146634;685;45910;-76
2024/04/17 10:03:13;;;;;;;;;7.00;5.00;;;;;24.58;42.04;99460.84;146634;591;45008;-77
2024/04/17 10:06:09;;;;;;;;;6.00;4.00;;;;;24.56;41.84;99466.19;146631;569;45914;-76
2024/04/17 10:09:32;;;;;;;;;5.75;4.00;;;;;23.79;42.10;99341.88;146635;708;45020;-77
2024/04/17 10:12:39;;;;;;;;;6.00;4.67;;;;;24.55;42.50;99460.91;146632;587;46016;-76
2024/04/17 10:15:53;;;;;;;;;4.33;4.00;;;;;24.42;42.07;99387.09;146633;592;46008;-76
2024/04/17 10:18:54;;;;;;;;;7.67;4.67;;;;;25.05;41.49;99451.63;146633;652;45011;-79
2024/04/17 10:21:47;;;;;;;;;7.00;6.75;;;;;25.16;41.12;99439.88;146630;648;46008;-75
2024/04/17 10:24:52;;;;;;;;;1.00;1.00;;;;;25.16;40.25;99438.06;146632;566;45016;-79
2024/04/17 10:28:07;;;;;;;;;8.00;7.00;;;;;24.60;40.36;99339.78;146633;564;45020;-78
2024/04/17 10:31:06;;;;;;;;;7.00;5.00;;;;;25.20;40.87;99430.88;146628;644;47010;-75
2024/04/17 10:34:06;;;;;;;;;5.00;3.33;;;;;25.32;40.49;99428.75;146633;590;47008;-75
2024/04/17 10:37:10;;;;;;;;;5.67;3.00;;;;;25.50;39.88;99421.16;146622;675;47010;-78
2024/04/17 10:40:30;;;;;;;;;6.00;5.00;;;;;25.54;39.62;99420.13;146619;577;47020;-77
2024/04/17 10:43:47;;;;;;;;;5.00;4.00;;;;;24.84;40.49;99311.69;146615;662;48017;-76
2024/04/17 10:46:54;;;;;;;;;6.33;3.00;;;;;25.46;38.93;99414.22;146621;610;46020;-75
2024/04/17 10:50:07;;;;;;;;;5.00;5.00;;;;;24.80;40.19;99292.37;146617;582;47912;-76
2024/04/17 10:53:20;;;;;;;;;3.33;3.33;;;;;24.92;40.20;99306.16;146614;579;46020;-75
2024/04/17 10:56:20;;;;;;;;;6.00;5.00;;;;;25.57;39.71;99396.16;146618;609;46016;-76
2024/04/17 10:59:28;;;;;;;;;4.33;4.00;;;;;25.63;39.19;99403.94;146619;578;46021;-76
2024/04/17 11:02:26;;;;;;;;;5.00;3.33;;;;;25.61;39.76;99397.81;146617;563;47016;-74
2024/04/17 11:05:20;;;;;;;;;7.67;5.00;;;;;25.57;38.99;99396.16;146617;613;47008;-75
2024/04/17 11:08:30;;;;;;;;;5.67;4.00;;;;;25.56;39.38;99389.97;146617;725;46016;-77
2024/04/17 11:11:39;;;;;;;;;5.33;5.33;;;;;25.59;38.77;99394.31;146622;606;46008;-76
2024/04/17 11:14:47;;;;;;;;;5.33;3.00;;;;;25.52;38.57;99392.78;146618;615;46017;-75
2024/04/17 11:17:42;;;;;;;;;5.00;3.67;;;;;25.43;39.37;99390.41;146623;634;46020;-77
2024/04/17 11:20:40;;;;;;;;;8.00;5.00;;;;;25.37;37.88;99383.50;146618;601;46016;-80
2024/04/17 11:23:46;;;;;;;;;5.33;5.33;;;;;25.27;39.40;99382.06;146611;564;46020;-76
2024/04/17 11:26:49;;;;;;;;;4.00;4.00;;;;;25.19;38.40;99390.22;146618;667;46912;-76
2024/04/17 11:29:57;;;;;;;;;5.00;4.67;;;;;25.05;39.11;99385.31;146621;649;46020;-76
2024/04/17 11:32:59;;;;;;;;;5.33;5.00;;;;;24.93;39.73;99383.03;146619;625;46012;-76
2024/04/17 11:36:27;;;;;;;;;6.67;5.33;;;;;24.84;40.26;99373.53;146619;608;46021;-75
2024/04/17 11:39:26;;;;;;;;;6.00;6.00;;;;;24.73;39.17;99374.75;146619;586;46010;-76
2024/04/17 11:42:24;;;;;;;;;6.00;5.67;;;;;24.66;39.43;99368.75;146616;598;47008;-75
2024/04/17 11:45:22;;;;;;;;;6.33;4.33;;;;;24.61;39.78;99360.94;146616;589;46017;-78
2024/04/17 11:48:33;;;;;;;;;4.67;3.33;;;;;24.55;39.84;99363.78;146618;661;47008;-78
2024/04/17 11:51:34;;;;;;;;;3.33;3.33;;;;;24.53;39.46;99367.38;146619;600;46010;-79
2024/04/17 11:54:46;;;;;;;;;7.00;5.00;;;;;24.51;39.72;99359.44;146613;606;46029;-77
2024/04/17 11:57:47;;;;;;;;;13.67;9.00;;;;;24.53;40.47;99357.62;146619;689;46011;-75
2024/04/17 12:01:08;;;;;;;;;9.67;7.67;;;;;24.51;39.99;99351.50;146619;615;47020;-75
2024/04/17 12:04:06;;;;;;;;;11.00;9.00;;;;;24.48;39.43;99345.41;146614;600;47016;-76
2024/04/17 12:07:02;;;;;;;;;10.00;8.00;;;;;24.47;39.60;99341.03;146622;576;47008;-75
2024/04/17 12:10:06;;;;;;;;;6.33;6.33;;;;;24.52;39.77;99336.50;146614;714;47010;-75
2024/04/17 12:13:11;;;;;;;;;8.67;6.00;;;;;24.58;39.79;99331.88;146620;601;47008;-77
2024/04/17 12:16:20;;;;;;;;;6.33;5.67;;;;;24.61;39.13;99321.19;146604;578;47911;-77
2024/04/17 12:19:16;;;;;;;;;7.33;5.67;;;;;24.73;39.49;99322.59;146623;656;46008;-75
2024/04/17 12:22:31;;;;;;;;;0.00;0.00;;;;;24.86;38.61;99305.44;146617;570;46017;-78
2024/04/17 12:28:43;;;;;;;;;6.33;4.67;;;;;25.29;37.44;99287.34;146611;583;47016;-74
2024/04/17 12:31:49;;;;;;;;;6.33;6.33;;;;;25.50;38.98;99288.47;146622;583;47008;-74
2024/04/17 12:34:51;;;;;;;;;5.67;4.33;;;;;25.82;38.48;99278.56;146618;611;46011;-75
2024/04/17 12:37:52;;;;;;;;;4.67;4.67;;;;;26.11;36.58;99272.28;146620;581;47008;-74
2024/04/17 12:40:51;;;;;;;;;7.67;6.00;;;;;26.32;37.03;99270.63;146612;566;47016;-76
2024/04/17 12:43:47;;;;;;;;;7.00;5.00;;;;;26.48;36.13;99272.72;146620;564;47021;-74
2024/04/17 12:46:42;;;;;;;;;5.33;4.00;;;;;26.57;34.84;99254.66;146615;652;46012;-75
2024/04/17 12:49:57;;;;;;;;;7.00;6.25;;;;;26.01;35.62;99147.75;146621;654;46010;-76
2024/04/17 12:53:16;;;;;;;;;6.00;4.00;;;;;26.05;35.61;99135.25;146617;593;46577;-75
2024/04/17 12:56:15;;;;;;;;;5.67;4.33;;;;;26.75;32.98;99248.66;146605;589;46020;-78
2024/04/17 12:59:17;;;;;;;;;4.33;4.33;;;;;26.80;33.58;99236.06;146617;590;46012;-74
2024/04/17 13:02:14;;;;;;;;;4.00;4.00;;;;;26.94;34.86;99230.19;146621;612;46020;-75
2024/04/17 13:05:19;;;;;;;;;4.33;3.67;;;;;27.04;33.07;99228.91;146616;599;47012;-77
2024/04/17 13:08:21;;;;;;;;;5.33;4.33;;;;;27.10;32.52;99233.97;146620;600;47008;-75
2024/04/17 13:11:15;;;;;;;;;5.67;5.00;;;;;27.15;32.45;99228.50;146616;570;47017;-78
2024/04/17 13:14:29;;;;;;;;;6.00;3.67;;;;;27.18;32.41;99218.59;146623;649;46020;-75
2024/04/17 13:17:26;;;;;;;;;6.33;4.00;;;;;27.12;32.29;99207.28;146617;602;46016;-78
2024/04/17 13:20:26;;;;;;;;;5.67;5.33;;;;;26.99;32.40;99206.06;146621;574;46021;-73
2024/04/17 13:23:33;;;;;;;;;5.00;4.67;;;;;26.93;31.41;99196.53;146616;609;46010;-75
2024/04/17 13:26:34;;;;;;;;;5.33;4.00;;;;;26.91;31.77;99196.59;146610;592;47008;-79
2024/04/17 13:29:32;;;;;;;;;4.67;4.00;;;;;26.98;33.26;99204.31;146616;641;46016;-75
2024/04/17 13:32:42;;;;;;;;;4.67;4.67;;;;;27.13;33.53;99195.72;146623;592;46008;-76
2024/04/17 13:35:51;;;;;;;;;4.67;4.67;;;;;27.33;33.54;99198.47;146618;602;47010;-74
2024/04/17 13:38:49;;;;;;;;;6.00;4.33;;;;;27.29;33.15;99186.22;146625;569;46008;-73
2024/04/17 13:41:46;;;;;;;;;5.33;5.00;;;;;27.21;32.75;99183.00;146619;611;46016;-77
2024/04/17 13:44:53;;;;;;;;;6.00;4.00;;;;;27.22;32.40;99186.53;146615;573;46020;-75
2024/04/17 13:47:57;;;;;;;;;5.00;4.00;;;;;27.16;31.86;99177.84;146612;661;47011;-76
2024/04/17 13:51:16;;;;;;;;;4.00;3.00;;;;;27.11;33.96;99178.97;146624;564;46008;-77
2024/04/17 13:54:08;;;;;;;;;6.00;5.00;;;;;27.06;32.67;99176.47;146614;572;46909;-75
2024/04/17 13:57:13;;;;;;;;;6.00;4.33;;;;;27.04;33.50;99178.34;146612;636;46021;-78
2024/04/17 14:00:15;;;;;;;;;4.67;4.33;;;;;27.00;32.50;99174.06;146617;571;46027;-75
2024/04/17 14:03:20;;;;;;;;;5.00;3.67;;;;;26.90;32.78;99168.25;146624;619;46008;-81
2024/04/17 14:06:20;;;;;;;;;8.00;7.00;;;;;26.82;33.38;99159.75;146616;626;47016;-79
2024/04/17 14:09:26;;;;;;;;;5.67;5.33;;;;;26.71;33.03;99152.19;146621;676;46020;-78
2024/04/17 14:12:28;;;;;;;;;4.33;4.33;;;;;26.56;33.80;99152.78;146618;654;46910;-77
2024/04/17 14:15:31;;;;;;;;;6.67;5.33;;;;;26.44;34.54;99164.72;146619;571;47010;-75
2024/04/17 14:18:27;;;;;;;;;1.00;0.67;;;;;26.33;33.57;99155.44;146620;644;46011;-78
2024/04/17 14:21:32;;;;;;;;;6.67;5.33;;;;;26.33;34.58;99145.69;146621;586;47008;-76
2024/04/17 14:24:30;;;;;;;;;6.33;4.67;;;;;26.34;34.60;99151.84;146617;634;46017;-76
2024/04/17 14:27:26;;;;;;;;;12.00;7.00;;;;;26.30;34.61;99147.59;146616;589;46008;-78
2024/04/17 14:30:22;;;;;;;;;4.33;4.33;;;;;26.23;35.06;99149.59;146614;610;46016;-77
2024/04/17 14:33:21;;;;;;;;;6.67;5.00;;;;;26.14;35.26;99139.34;146620;656;46020;-80
2024/04/17 14:36:14;;;;;;;;;7.00;6.00;;;;;26.05;35.92;99142.34;146614;570;46016;-79
2024/04/17 14:39:38;;;;;;;;;7.00;6.33;;;;;26.00;35.49;99140.69;146618;622;46020;-78
2024/04/17 14:42:31;;;;;;;;;6.00;6.00;;;;;25.91;35.74;99143.69;146616;629;46016;-78
2024/04/17 14:45:36;;;;;;;;;;;;;;;;;;;;;